Home   Weather   India   Lucknow   Past weeks
Flag for India

Past Weather in Lucknow, Uttar Pradesh, India — Yesterday and Last 2 Weeks

Currently: 81 °F. Fog. (Weather station: Lucknow / Amausi, India). See more current weather

Past Weather in Lucknow — Graph

°F

Lucknow Temperature Yesterday

Maximum temperature yesterday: 93 °F (at 1:30 pm)
Minimum temperature yesterday: 82 °F (at 9:30 pm)
Average temperature yesterday: 87 °F

High & Low Weather Summary for the Past Weeks

 TemperatureHumidityPressure
High97 °F (Jun 22, 3:30 pm)100% (Jun 10, 8:00 am)29.62 "Hg (Jun 10, 8:00 am)
Low73 °F (Jun 10, 10:00 am)67% (Jun 11, 2:30 pm)29.30 "Hg (Jun 15, 4:00 pm)
Average83 °F86%29.50 "Hg
* Reported Jun 9 5:30 pm — Jun 24 5:30 pm, Lucknow. Weather by CustomWeather, © 2021

Note: Actual official high and low records may vary slightly from our data, if they occured in-between our weather recording intervals... More about our weather records

Lucknow Weather History for the Previous 24 Hours

Scroll right to see more
 ConditionsComfort  
Time TempWeatherWind HumidityBarometerVisibility
5:30 pm
Thu, Jun 24
81 °FFog.3 mph94%29.53 "Hg1 mi
5:00 pm81 °FFog.3 mph94%29.53 "Hg1 mi
4:30 pm81 °FFog.No wind94%29.53 "Hg1 mi
4:00 pm79 °FThunderstorms. More clouds than sun.3 mph100%29.53 "Hg1 mi
3:30 pm81 °FThunderstorms. More clouds than sun.3 mph94%29.53 "Hg1 mi
3:00 pm81 °FWarm.6 mph94%29.53 "Hg1 mi
2:30 pm82 °FWarm.2 mph94%29.56 "Hg1 mi
2:00 pm82 °FWarm.6 mph100%29.59 "Hg1 mi
1:30 pm86 °FThunderstorms. More clouds than sun.6 mph84%29.59 "Hg1 mi
1:00 pm86 °FFog.7 mph89%29.56 "Hg2 mi
12:30 pm90 °FFog.6 mph79%29.56 "Hg2 mi
12:00 pm90 °FFog.6 mph79%29.59 "Hg2 mi
11:30 am88 °FFog.5 mph84%29.59 "Hg2 mi
11:00 am88 °FFog.6 mph84%29.59 "Hg2 mi
10:30 am86 °FFog.6 mph89%29.62 "Hg2 mi
10:00 am86 °FFog.2 mph84%29.62 "Hg2 mi
9:30 am86 °FFog.2 mph84%29.59 "Hg2 mi
9:00 am86 °FFog.5 mph84%29.59 "Hg2 mi
8:30 am84 °FFog.5 mph89%29.59 "Hg2 mi
8:00 am82 °FFog.3 mph89%29.59 "Hg2 mi
7:30 am82 °FFog.3 mph89%29.59 "Hg2 mi
7:00 am82 °FFog.3 mph89%29.59 "Hg2 mi
6:30 am81 °FFog.5 mph94%29.56 "Hg2 mi
6:00 am81 °FFog.5 mph94%29.56 "Hg2 mi
5:30 am81 °FFog.5 mph94%29.56 "Hg2 mi
5:00 am81 °FFog.3 mph94%29.56 "Hg2 mi
4:30 am81 °FFog.5 mph94%29.56 "Hg2 mi
4:00 am82 °FFog.3 mph89%29.56 "Hg2 mi
3:30 am82 °FFog.3 mph89%29.56 "Hg2 mi
3:00 am82 °FFog.3 mph89%29.59 "Hg2 mi
2:30 am82 °FFog.3 mph89%29.59 "Hg2 mi
2:00 am82 °FFog.5 mph89%29.59 "Hg2 mi
1:30 am81 °FFog.5 mph94%29.59 "Hg2 mi
1:00 am82 °FFog.5 mph89%29.62 "Hg2 mi
12:30 am82 °FFog.5 mph84%29.62 "Hg2 mi
12:00 am82 °FFog.6 mph84%29.62 "Hg2 mi
11:30 pm
Wed, Jun 23
82 °FFog.6 mph84%29.62 "Hg2 mi
11:00 pm82 °FFog.6 mph89%29.62 "Hg2 mi
10:30 pm82 °FFog.6 mph89%29.62 "Hg2 mi
10:00 pm82 °FFog.7 mph89%29.62 "Hg2 mi
9:30 pm82 °FFog.8 mph89%29.59 "Hg2 mi
9:00 pm84 °FFog.6 mph84%29.59 "Hg2 mi
8:30 pm84 °FFog.6 mph89%29.56 "Hg2 mi
8:00 pm84 °FFog.7 mph89%29.56 "Hg2 mi
7:30 pm86 °FBroken clouds.8 mph89%29.53 "Hg2 mi
7:00 pm88 °FBroken clouds.No wind84%29.53 "Hg2 mi
6:30 pm90 °FBroken clouds.6 mph84%29.53 "Hg2 mi
6:00 pm90 °FBroken clouds.8 mph84%29.53 "Hg2 mi
Weather by CustomWeather, © 2021

See weather overview